Saukville, WI

2:45 PM CDT on October 20, 2019 (GMT -0500)
Trail Way Court | | Change Station
Active Advisory: Lakeshore Flood Advisory Active Notice: Lakeshore Flood Advisory

Elev 771 ft 43.36 °N, 87.93 °W | Updated 18 seconds ago

Clear
Clear
63.5 °F
Feels Like 63.5 °F
N
0
Wind Variable Wind from SSW
Gusts 0.0 mph

Today
High -- | Low -- °F
--% Chance of Precip.
Yesterday
High -- | Low -- °F
Precip. -- in
Pressure 29.91 in
Visibility 10.0 miles
Clouds Clear
Dew Point 52 °F
Humidity 67%
Rainfall 0.22 in
Snow Depth Not available.
7:11 AM 6:00 PM
Waning Gibbous, 58% visible
METAR KETB 201915Z AUTO 00000KT 10SM CLR 18/04 A2991 RMK AO2
Pressure 29.91 in
Visibility 10.0 miles
Clouds Clear
Dew Point 52 °F
Humidity 67%
Rainfall 0.22 in
Snow Depth Not available.
7:11 AM 6:00 PM
Waning Gibbous, 58% visible
METAR KETB 201915Z AUTO 00000KT 10SM CLR 18/04 A2991 RMK AO2

Get Your Daily Forecast Email!

Thanks for signing up!

Be on the lookout for a verification email in your inbox.

You'll start receiving severe weather alerts in your inbox..

×

10-Day Weather Forecast

Almanac

Astronomy

Oct. 20, 2019 Rise Set
Actual Time
Civil Twilight
Nautical Twilight
Astronomical Twilight
Moon
Length of Visible Light
Length of Day
Tomorrow will be .
, % of the Moon is Illuminated

Today's Extremes

State Highs State Lows

Community

WunderPhotos

Category 6

Welcome to Category 6. This is the collective home for Weather Underground's featured writeups by Dr. Jeff Masters (right), Bob Henson (left), Chris Burt, and other regular contributors.

Nearby

Air Quality

  Air Quality AQ Index Pollutant
Not available.

Snow Depth

Station Depth Elevation

Earthquake Activity

City Distance Mag. Time & Date
Minimum magnitude displayed is 2.5.

Coastal Water Temperatures

Place Temperature

Stations

Nearby Weather Stations

Station Location Temp. Windchill Dew Point Humidity Wind Precip. Elev Updated Type
                   

Watches & Warnings

Lakeshore Flood Advisory
Issued: 2:14 PM CDT Oct. 20, 2019 – National Weather Service

... Lakeshore flood advisory in effect from 10 am to 10 PM CDT
Monday...

The National Weather Service in Milwaukee/Sullivan has issued a
Lakeshore flood advisory... which is in effect from 10 am to 10 PM
CDT Monday.

* Winds... southeast winds will increase to 20 to 30 mph Monday
morning, becoming southwest later Monday afternoon and decreasing
to 15 to 25 mph.

* Waves... waves building to 8 to 10 feet, decreasing Monday evening
due to winds shifting offshore and diminishing.

* Impacts... minor flooding of beaches, along with roads and structures
in low lying areas near the Lakeshore, are possible. The combination of
gusty southeast winds and high wave action will occur from mid morning
Monday through Monday evening.

Precautionary/preparedness actions...

A Lakeshore flood advisory indicates that onshore winds will
generate flooding of low areas along the Lakeshore.